sensor_id;sensor_type;location;lat;lon;timestamp;P1;durP1;ratioP1;P2;durP2;ratioP2
3712;SDS011;1872;51.406;6.856;2022-11-15T00:00:27;12.43;;;9.77;;
3712;SDS011;1872;51.406;6.856;2022-11-15T00:02:53;16.90;;;10.50;;
3712;SDS011;1872;51.406;6.856;2022-11-15T00:05:18;14.10;;;10.00;;
3712;SDS011;1872;51.406;6.856;2022-11-15T00:07:44;15.43;;;9.93;;
3712;SDS011;1872;51.406;6.856;2022-11-15T00:10:10;15.50;;;10.03;;
3712;SDS011;1872;51.406;6.856;2022-11-15T00:12:35;10.87;;;9.77;;
3712;SDS011;1872;51.406;6.856;2022-11-15T00:15:01;13.43;;;9.50;;
3712;SDS011;1872;51.406;6.856;2022-11-15T00:17:27;11.37;;;9.50;;
3712;SDS011;1872;51.406;6.856;2022-11-15T00:19:52;13.10;;;9.90;;
3712;SDS011;1872;51.406;6.856;2022-11-15T00:22:18;15.10;;;9.97;;
3712;SDS011;1872;51.406;6.856;2022-11-15T00:24:44;13.27;;;9.90;;
3712;SDS011;1872;51.406;6.856;2022-11-15T00:27:09;14.07;;;9.37;;
3712;SDS011;1872;51.406;6.856;2022-11-15T00:29:36;14.20;;;9.30;;
3712;SDS011;1872;51.406;6.856;2022-11-15T00:32:03;12.13;;;9.70;;
3712;SDS011;1872;51.406;6.856;2022-11-15T00:34:29;13.50;;;9.40;;
3712;SDS011;1872;51.406;6.856;2022-11-15T00:36:56;12.57;;;10.30;;
3712;SDS011;1872;51.406;6.856;2022-11-15T00:39:22;14.40;;;9.10;;
3712;SDS011;1872;51.406;6.856;2022-11-15T00:41:47;12.20;;;9.80;;
3712;SDS011;1872;51.406;6.856;2022-11-15T00:44:14;11.63;;;9.60;;
3712;SDS011;1872;51.406;6.856;2022-11-15T00:46:40;12.83;;;9.83;;
3712;SDS011;1872;51.406;6.856;2022-11-15T00:49:05;12.10;;;9.20;;
3712;SDS011;1872;51.406;6.856;2022-11-15T00:51:31;12.50;;;9.10;;
3712;SDS011;1872;51.406;6.856;2022-11-15T00:53:57;12.40;;;10.00;;
3712;SDS011;1872;51.406;6.856;2022-11-15T00:56:22;11.30;;;9.23;;
3712;SDS011;1872;51.406;6.856;2022-11-15T00:58:48;12.47;;;9.60;;
3712;SDS011;1872;51.406;6.856;2022-11-15T01:01:14;13.50;;;9.50;;
3712;SDS011;1872;51.406;6.856;2022-11-15T01:03:40;15.23;;;9.60;;
3712;SDS011;1872;51.406;6.856;2022-11-15T01:06:07;10.93;;;8.30;;
3712;SDS011;1872;51.406;6.856;2022-11-15T01:08:33;11.90;;;9.10;;
3712;SDS011;1872;51.406;6.856;2022-11-15T01:11:09;12.70;;;9.33;;
3712;SDS011;1872;51.406;6.856;2022-11-15T01:13:36;12.13;;;9.70;;
3712;SDS011;1872;51.406;6.856;2022-11-15T01:16:12;14.10;;;9.43;;
3712;SDS011;1872;51.406;6.856;2022-11-15T01:18:39;10.60;;;9.10;;
3712;SDS011;1872;51.406;6.856;2022-11-15T01:21:08;11.23;;;9.20;;
3712;SDS011;1872;51.406;6.856;2022-11-15T01:23:39;9.97;;;8.87;;
3712;SDS011;1872;51.406;6.856;2022-11-15T01:26:05;10.43;;;8.70;;
3712;SDS011;1872;51.406;6.856;2022-11-15T01:28:33;9.60;;;7.90;;
3712;SDS011;1872;51.406;6.856;2022-11-15T01:31:04;12.27;;;8.87;;
3712;SDS011;1872;51.406;6.856;2022-11-15T01:33:38;9.63;;;8.53;;
3712;SDS011;1872;51.406;6.856;2022-11-15T01:36:07;9.13;;;7.67;;
3712;SDS011;1872;51.406;6.856;2022-11-15T01:38:37;10.90;;;9.10;;
3712;SDS011;1872;51.406;6.856;2022-11-15T01:41:03;10.33;;;8.80;;
3712;SDS011;1872;51.406;6.856;2022-11-15T01:43:30;12.20;;;9.17;;
3712;SDS011;1872;51.406;6.856;2022-11-15T01:46:06;9.10;;;7.77;;
3712;SDS011;1872;51.406;6.856;2022-11-15T01:48:51;9.37;;;7.60;;
3712;SDS011;1872;51.406;6.856;2022-11-15T01:51:20;16.17;;;9.80;;
3712;SDS011;1872;51.406;6.856;2022-11-15T01:53:49;13.20;;;9.40;;
3712;SDS011;1872;51.406;6.856;2022-11-15T01:56:22;9.80;;;8.80;;
3712;SDS011;1872;51.406;6.856;2022-11-15T01:58:50;12.10;;;8.80;;
3712;SDS011;1872;51.406;6.856;2022-11-15T02:01:18;10.40;;;8.67;;
3712;SDS011;1872;51.406;6.856;2022-11-15T02:03:52;11.97;;;8.63;;
3712;SDS011;1872;51.406;6.856;2022-11-15T02:06:21;9.00;;;7.80;;
3712;SDS011;1872;51.406;6.856;2022-11-15T02:08:48;10.63;;;8.43;;
3712;SDS011;1872;51.406;6.856;2022-11-15T02:11:15;10.80;;;8.20;;
3712;SDS011;1872;51.406;6.856;2022-11-15T02:13:40;12.07;;;8.10;;
3712;SDS011;1872;51.406;6.856;2022-11-15T02:18:55;10.30;;;8.57;;
3712;SDS011;1872;51.406;6.856;2022-11-15T02:32:19;8.97;;;8.07;;
3712;SDS011;1872;51.406;6.856;2022-11-15T02:35:04;9.60;;;7.30;;
3712;SDS011;1872;51.406;6.856;2022-11-15T02:37:58;11.10;;;8.70;;
3712;SDS011;1872;51.406;6.856;2022-11-15T02:40:38;11.60;;;8.87;;
3712;SDS011;1872;51.406;6.856;2022-11-15T02:43:17;8.90;;;8.00;;
3712;SDS011;1872;51.406;6.856;2022-11-15T02:46:09;13.37;;;9.63;;
3712;SDS011;1872;51.406;6.856;2022-11-15T02:49:07;9.73;;;7.60;;
3712;SDS011;1872;51.406;6.856;2022-11-15T02:51:34;9.63;;;8.63;;
3712;SDS011;1872;51.406;6.856;2022-11-15T02:54:00;12.03;;;8.67;;
3712;SDS011;1872;51.406;6.856;2022-11-15T02:56:26;9.63;;;8.27;;
3712;SDS011;1872;51.406;6.856;2022-11-15T02:59:10;10.80;;;8.50;;
3712;SDS011;1872;51.406;6.856;2022-11-15T03:02:03;11.27;;;8.33;;
3712;SDS011;1872;51.406;6.856;2022-11-15T03:08:02;11.03;;;8.40;;
3712;SDS011;1872;51.406;6.856;2022-11-15T03:10:46;10.83;;;8.87;;
3712;SDS011;1872;51.406;6.856;2022-11-15T03:16:11;10.80;;;8.73;;
3712;SDS011;1872;51.406;6.856;2022-11-15T03:18:46;12.57;;;8.70;;
3712;SDS011;1872;51.406;6.856;2022-11-15T03:21:18;12.60;;;9.30;;
3712;SDS011;1872;51.406;6.856;2022-11-15T03:23:46;11.23;;;9.27;;
3712;SDS011;1872;51.406;6.856;2022-11-15T03:26:13;11.10;;;9.00;;
3712;SDS011;1872;51.406;6.856;2022-11-15T03:28:50;12.20;;;8.70;;
3712;SDS011;1872;51.406;6.856;2022-11-15T03:31:20;10.37;;;8.40;;
3712;SDS011;1872;51.406;6.856;2022-11-15T03:34:07;14.17;;;9.30;;
3712;SDS011;1872;51.406;6.856;2022-11-15T03:36:36;11.43;;;8.47;;
3712;SDS011;1872;51.406;6.856;2022-11-15T03:39:05;10.20;;;8.43;;
3712;SDS011;1872;51.406;6.856;2022-11-15T03:45:00;9.47;;;8.00;;
3712;SDS011;1872;51.406;6.856;2022-11-15T03:50:10;10.57;;;7.77;;
3712;SDS011;1872;51.406;6.856;2022-11-15T03:52:38;9.40;;;7.67;;
3712;SDS011;1872;51.406;6.856;2022-11-15T03:55:06;9.97;;;7.90;;
3712;SDS011;1872;51.406;6.856;2022-11-15T03:57:33;8.30;;;7.40;;
3712;SDS011;1872;51.406;6.856;2022-11-15T03:59:59;8.20;;;7.30;;
3712;SDS011;1872;51.406;6.856;2022-11-15T04:02:25;10.63;;;7.40;;
3712;SDS011;1872;51.406;6.856;2022-11-15T04:04:51;10.57;;;7.73;;
3712;SDS011;1872;51.406;6.856;2022-11-15T04:07:16;9.40;;;7.57;;
3712;SDS011;1872;51.406;6.856;2022-11-15T04:09:42;9.70;;;7.07;;
3712;SDS011;1872;51.406;6.856;2022-11-15T04:12:26;9.90;;;7.30;;
3712;SDS011;1872;51.406;6.856;2022-11-15T04:14:58;8.67;;;7.37;;
3712;SDS011;1872;51.406;6.856;2022-11-15T04:17:32;7.97;;;7.13;;
3712;SDS011;1872;51.406;6.856;2022-11-15T04:19:58;11.13;;;9.43;;
3712;SDS011;1872;51.406;6.856;2022-11-15T04:22:43;7.87;;;6.67;;
3712;SDS011;1872;51.406;6.856;2022-11-15T04:25:27;7.93;;;7.00;;
3712;SDS011;1872;51.406;6.856;2022-11-15T04:27:53;9.97;;;7.13;;
3712;SDS011;1872;51.406;6.856;2022-11-15T04:30:19;8.40;;;6.23;;
3712;SDS011;1872;51.406;6.856;2022-11-15T04:32:45;7.10;;;6.40;;
3712;SDS011;1872;51.406;6.856;2022-11-15T04:35:10;7.93;;;7.20;;
3712;SDS011;1872;51.406;6.856;2022-11-15T04:37:36;8.23;;;7.17;;
3712;SDS011;1872;51.406;6.856;2022-11-15T04:40:02;7.67;;;6.87;;
3712;SDS011;1872;51.406;6.856;2022-11-15T04:42:28;10.23;;;6.73;;
3712;SDS011;1872;51.406;6.856;2022-11-15T04:44:54;7.60;;;6.20;;
3712;SDS011;1872;51.406;6.856;2022-11-15T04:47:19;6.57;;;5.83;;
3712;SDS011;1872;51.406;6.856;2022-11-15T04:49:45;8.70;;;6.50;;
3712;SDS011;1872;51.406;6.856;2022-11-15T04:52:10;8.10;;;6.70;;
3712;SDS011;1872;51.406;6.856;2022-11-15T04:54:36;7.23;;;6.30;;
3712;SDS011;1872;51.406;6.856;2022-11-15T04:57:02;8.07;;;6.70;;
3712;SDS011;1872;51.406;6.856;2022-11-15T04:59:28;11.00;;;6.80;;
3712;SDS011;1872;51.406;6.856;2022-11-15T05:01:53;8.77;;;6.00;;
3712;SDS011;1872;51.406;6.856;2022-11-15T05:04:19;8.73;;;6.03;;
3712;SDS011;1872;51.406;6.856;2022-11-15T05:06:45;10.67;;;6.73;;
3712;SDS011;1872;51.406;6.856;2022-11-15T05:09:12;6.73;;;5.30;;
3712;SDS011;1872;51.406;6.856;2022-11-15T05:11:38;8.50;;;6.43;;
3712;SDS011;1872;51.406;6.856;2022-11-15T05:14:04;7.87;;;5.93;;
3712;SDS011;1872;51.406;6.856;2022-11-15T05:16:30;8.10;;;6.00;;
3712;SDS011;1872;51.406;6.856;2022-11-15T05:18:56;7.33;;;6.53;;
3712;SDS011;1872;51.406;6.856;2022-11-15T05:21:21;7.90;;;6.73;;
3712;SDS011;1872;51.406;6.856;2022-11-15T05:23:47;6.60;;;5.90;;
3712;SDS011;1872;51.406;6.856;2022-11-15T05:26:13;10.40;;;6.60;;
3712;SDS011;1872;51.406;6.856;2022-11-15T05:28:41;6.93;;;6.23;;
3712;SDS011;1872;51.406;6.856;2022-11-15T05:31:08;8.73;;;6.40;;
3712;SDS011;1872;51.406;6.856;2022-11-15T05:33:36;7.60;;;6.20;;
3712;SDS011;1872;51.406;6.856;2022-11-15T05:36:12;9.43;;;7.10;;
3712;SDS011;1872;51.406;6.856;2022-11-15T05:38:42;8.90;;;7.00;;
3712;SDS011;1872;51.406;6.856;2022-11-15T05:41:08;11.33;;;8.10;;
3712;SDS011;1872;51.406;6.856;2022-11-15T05:43:35;8.27;;;7.03;;
3712;SDS011;1872;51.406;6.856;2022-11-15T05:46:04;9.33;;;7.43;;
3712;SDS011;1872;51.406;6.856;2022-11-15T05:48:30;8.13;;;7.23;;
3712;SDS011;1872;51.406;6.856;2022-11-15T05:50:56;7.43;;;6.73;;
3712;SDS011;1872;51.406;6.856;2022-11-15T05:53:23;8.80;;;7.43;;
3712;SDS011;1872;51.406;6.856;2022-11-15T05:55:51;8.70;;;7.57;;
3712;SDS011;1872;51.406;6.856;2022-11-15T05:58:17;10.50;;;7.40;;
3712;SDS011;1872;51.406;6.856;2022-11-15T06:00:44;8.40;;;7.10;;
3712;SDS011;1872;51.406;6.856;2022-11-15T06:03:10;8.37;;;7.33;;
3712;SDS011;1872;51.406;6.856;2022-11-15T06:05:35;9.37;;;8.10;;
3712;SDS011;1872;51.406;6.856;2022-11-15T06:08:02;9.20;;;7.87;;
3712;SDS011;1872;51.406;6.856;2022-11-15T06:10:28;8.37;;;7.43;;
3712;SDS011;1872;51.406;6.856;2022-11-15T06:12:57;10.03;;;6.87;;
3712;SDS011;1872;51.406;6.856;2022-11-15T06:15:24;8.40;;;7.30;;
3712;SDS011;1872;51.406;6.856;2022-11-15T06:17:50;9.30;;;7.03;;
3712;SDS011;1872;51.406;6.856;2022-11-15T06:20:15;8.40;;;6.93;;
3712;SDS011;1872;51.406;6.856;2022-11-15T06:22:41;8.57;;;7.77;;
3712;SDS011;1872;51.406;6.856;2022-11-15T06:25:07;8.83;;;7.20;;
3712;SDS011;1872;51.406;6.856;2022-11-15T06:27:33;9.30;;;7.43;;
3712;SDS011;1872;51.406;6.856;2022-11-15T06:29:59;7.67;;;6.87;;
3712;SDS011;1872;51.406;6.856;2022-11-15T06:32:25;9.03;;;7.30;;
3712;SDS011;1872;51.406;6.856;2022-11-15T06:34:50;8.17;;;6.70;;
3712;SDS011;1872;51.406;6.856;2022-11-15T06:37:16;8.20;;;7.20;;
3712;SDS011;1872;51.406;6.856;2022-11-15T06:39:46;9.03;;;6.40;;
3712;SDS011;1872;51.406;6.856;2022-11-15T06:42:12;6.60;;;6.00;;
3712;SDS011;1872;51.406;6.856;2022-11-15T06:44:37;10.13;;;6.33;;
3712;SDS011;1872;51.406;6.856;2022-11-15T06:47:03;8.77;;;7.20;;
3712;SDS011;1872;51.406;6.856;2022-11-15T06:49:29;7.63;;;6.33;;
3712;SDS011;1872;51.406;6.856;2022-11-15T06:51:54;8.80;;;6.03;;
3712;SDS011;1872;51.406;6.856;2022-11-15T06:54:20;7.10;;;6.00;;
3712;SDS011;1872;51.406;6.856;2022-11-15T06:56:46;7.60;;;6.20;;
3712;SDS011;1872;51.406;6.856;2022-11-15T06:59:12;7.53;;;6.43;;
3712;SDS011;1872;51.406;6.856;2022-11-15T07:01:37;8.53;;;6.80;;
3712;SDS011;1872;51.406;6.856;2022-11-15T07:04:03;10.10;;;7.60;;
3712;SDS011;1872;51.406;6.856;2022-11-15T07:06:29;7.50;;;6.53;;
3712;SDS011;1872;51.406;6.856;2022-11-15T07:08:54;7.47;;;6.47;;
3712;SDS011;1872;51.406;6.856;2022-11-15T07:11:20;8.17;;;6.40;;
3712;SDS011;1872;51.406;6.856;2022-11-15T07:13:46;8.60;;;6.27;;
3712;SDS011;1872;51.406;6.856;2022-11-15T07:16:11;8.00;;;5.80;;
3712;SDS011;1872;51.406;6.856;2022-11-15T07:18:38;8.40;;;6.30;;
3712;SDS011;1872;51.406;6.856;2022-11-15T07:21:06;6.30;;;5.20;;
3712;SDS011;1872;51.406;6.856;2022-11-15T07:23:35;6.57;;;5.30;;
3712;SDS011;1872;51.406;6.856;2022-11-15T07:26:02;7.67;;;5.90;;
3712;SDS011;1872;51.406;6.856;2022-11-15T07:28:28;16.90;;;7.43;;
3712;SDS011;1872;51.406;6.856;2022-11-15T07:30:54;6.93;;;5.67;;
3712;SDS011;1872;51.406;6.856;2022-11-15T07:33:20;5.70;;;5.10;;
3712;SDS011;1872;51.406;6.856;2022-11-15T07:35:46;8.70;;;5.30;;
3712;SDS011;1872;51.406;6.856;2022-11-15T07:38:15;5.20;;;4.70;;
3712;SDS011;1872;51.406;6.856;2022-11-15T07:40:44;6.20;;;5.03;;
3712;SDS011;1872;51.406;6.856;2022-11-15T07:43:11;5.10;;;4.30;;
3712;SDS011;1872;51.406;6.856;2022-11-15T07:45:43;5.67;;;4.77;;
3712;SDS011;1872;51.406;6.856;2022-11-15T07:48:10;6.27;;;4.60;;
3712;SDS011;1872;51.406;6.856;2022-11-15T07:50:36;5.10;;;4.63;;
3712;SDS011;1872;51.406;6.856;2022-11-15T07:53:05;5.17;;;4.50;;
3712;SDS011;1872;51.406;6.856;2022-11-15T07:55:31;7.87;;;4.83;;
3712;SDS011;1872;51.406;6.856;2022-11-15T07:58:06;5.03;;;4.20;;
3712;SDS011;1872;51.406;6.856;2022-11-15T08:00:35;7.53;;;4.63;;
3712;SDS011;1872;51.406;6.856;2022-11-15T08:03:06;5.77;;;4.37;;
3712;SDS011;1872;51.406;6.856;2022-11-15T08:05:34;5.10;;;4.23;;
3712;SDS011;1872;51.406;6.856;2022-11-15T08:08:02;10.40;;;4.93;;
3712;SDS011;1872;51.406;6.856;2022-11-15T08:10:28;5.72;;;4.57;;
3712;SDS011;1872;51.406;6.856;2022-11-15T08:12:58;4.88;;;4.20;;
3712;SDS011;1872;51.406;6.856;2022-11-15T08:15:29;6.87;;;4.40;;
3712;SDS011;1872;51.406;6.856;2022-11-15T08:17:56;5.90;;;4.50;;
3712;SDS011;1872;51.406;6.856;2022-11-15T08:20:24;4.03;;;3.37;;
3712;SDS011;1872;51.406;6.856;2022-11-15T08:22:51;5.57;;;4.97;;
3712;SDS011;1872;51.406;6.856;2022-11-15T08:25:18;5.23;;;4.17;;
3712;SDS011;1872;51.406;6.856;2022-11-15T08:27:44;3.37;;;3.07;;
3712;SDS011;1872;51.406;6.856;2022-11-15T08:30:10;3.97;;;3.50;;
3712;SDS011;1872;51.406;6.856;2022-11-15T08:32:37;4.07;;;3.63;;
3712;SDS011;1872;51.406;6.856;2022-11-15T08:35:02;3.70;;;3.40;;
3712;SDS011;1872;51.406;6.856;2022-11-15T08:37:28;6.07;;;3.97;;
3712;SDS011;1872;51.406;6.856;2022-11-15T08:39:54;4.67;;;3.40;;
3712;SDS011;1872;51.406;6.856;2022-11-15T08:42:20;4.43;;;4.03;;
3712;SDS011;1872;51.406;6.856;2022-11-15T08:44:45;3.90;;;3.50;;
3712;SDS011;1872;51.406;6.856;2022-11-15T08:47:11;3.83;;;3.33;;
3712;SDS011;1872;51.406;6.856;2022-11-15T08:49:38;3.60;;;3.30;;
3712;SDS011;1872;51.406;6.856;2022-11-15T08:52:04;3.20;;;2.90;;
3712;SDS011;1872;51.406;6.856;2022-11-15T08:54:29;12.67;;;4.30;;
3712;SDS011;1872;51.406;6.856;2022-11-15T08:56:55;4.07;;;2.80;;
3712;SDS011;1872;51.406;6.856;2022-11-15T08:59:21;3.80;;;3.43;;
3712;SDS011;1872;51.406;6.856;2022-11-15T09:01:50;3.90;;;3.50;;
3712;SDS011;1872;51.406;6.856;2022-11-15T09:04:15;6.37;;;3.90;;
3712;SDS011;1872;51.406;6.856;2022-11-15T09:06:41;4.30;;;3.90;;
3712;SDS011;1872;51.406;6.856;2022-11-15T09:09:07;22.10;;;6.30;;
3712;SDS011;1872;51.406;6.856;2022-11-15T09:11:32;10.60;;;4.90;;
3712;SDS011;1872;51.406;6.856;2022-11-15T09:13:58;5.03;;;4.40;;
3712;SDS011;1872;51.406;6.856;2022-11-15T09:16:24;8.13;;;4.33;;
3712;SDS011;1872;51.406;6.856;2022-11-15T09:18:50;5.60;;;4.40;;
3712;SDS011;1872;51.406;6.856;2022-11-15T09:21:15;4.60;;;4.10;;
3712;SDS011;1872;51.406;6.856;2022-11-15T09:23:42;27.57;;;7.07;;
3712;SDS011;1872;51.406;6.856;2022-11-15T09:26:08;11.80;;;4.73;;
3712;SDS011;1872;51.406;6.856;2022-11-15T09:28:34;9.87;;;4.10;;
3712;SDS011;1872;51.406;6.856;2022-11-15T09:31:02;5.97;;;4.10;;
3712;SDS011;1872;51.406;6.856;2022-11-15T09:33:29;3.87;;;3.57;;
3712;SDS011;1872;51.406;6.856;2022-11-15T09:35:59;4.13;;;3.67;;
3712;SDS011;1872;51.406;6.856;2022-11-15T09:38:29;3.60;;;3.30;;
3712;SDS011;1872;51.406;6.856;2022-11-15T09:41:38;3.40;;;3.10;;
3712;SDS011;1872;51.406;6.856;2022-11-15T09:46:59;3.40;;;3.10;;
3712;SDS011;1872;51.406;6.856;2022-11-15T09:49:28;5.00;;;3.23;;
3712;SDS011;1872;51.406;6.856;2022-11-15T09:51:54;12.50;;;4.67;;
3712;SDS011;1872;51.406;6.856;2022-11-15T09:54:26;6.10;;;3.27;;
3712;SDS011;1872;51.406;6.856;2022-11-15T09:57:11;5.50;;;2.77;;
3712;SDS011;1872;51.406;6.856;2022-11-15T10:00:16;3.73;;;3.10;;
3712;SDS011;1872;51.406;6.856;2022-11-15T10:02:56;3.03;;;2.73;;
3712;SDS011;1872;51.406;6.856;2022-11-15T10:05:23;3.23;;;2.93;;
3712;SDS011;1872;51.406;6.856;2022-11-15T10:13:08;3.77;;;3.33;;
3712;SDS011;1872;51.406;6.856;2022-11-15T10:15:47;3.00;;;2.70;;
3712;SDS011;1872;51.406;6.856;2022-11-15T10:18:26;3.47;;;2.90;;
3712;SDS011;1872;51.406;6.856;2022-11-15T10:21:02;3.23;;;2.63;;
3712;SDS011;1872;51.406;6.856;2022-11-15T10:23:41;3.80;;;2.80;;
3712;SDS011;1872;51.406;6.856;2022-11-15T10:26:08;4.63;;;3.00;;
3712;SDS011;1872;51.406;6.856;2022-11-15T10:28:38;2.50;;;2.30;;
3712;SDS011;1872;51.406;6.856;2022-11-15T10:31:11;3.80;;;2.00;;
3712;SDS011;1872;51.406;6.856;2022-11-15T10:34:10;3.70;;;2.37;;
3712;SDS011;1872;51.406;6.856;2022-11-15T10:36:43;2.97;;;2.30;;
3712;SDS011;1872;51.406;6.856;2022-11-15T10:39:13;2.77;;;2.57;;
3712;SDS011;1872;51.406;6.856;2022-11-15T10:41:40;2.97;;;2.60;;
3712;SDS011;1872;51.406;6.856;2022-11-15T10:46:42;3.53;;;3.23;;
3712;SDS011;1872;51.406;6.856;2022-11-15T10:49:13;2.63;;;2.17;;
3712;SDS011;1872;51.406;6.856;2022-11-15T10:52:18;2.63;;;2.43;;
3712;SDS011;1872;51.406;6.856;2022-11-15T10:54:41;3.70;;;2.20;;
3712;SDS011;1872;51.406;6.856;2022-11-15T10:57:12;3.90;;;2.50;;
3712;SDS011;1872;51.406;6.856;2022-11-15T10:59:42;2.53;;;2.33;;
3712;SDS011;1872;51.406;6.856;2022-11-15T11:10:51;2.30;;;2.10;;
3712;SDS011;1872;51.406;6.856;2022-11-15T11:13:30;2.57;;;2.37;;
3712;SDS011;1872;51.406;6.856;2022-11-15T11:24:49;1.87;;;1.77;;
3712;SDS011;1872;51.406;6.856;2022-11-15T11:43:00;2.40;;;1.50;;
3712;SDS011;1872;51.406;6.856;2022-11-15T11:45:53;1.90;;;1.80;;
3712;SDS011;1872;51.406;6.856;2022-11-15T11:48:41;1.90;;;1.80;;
3712;SDS011;1872;51.406;6.856;2022-11-15T11:56:56;2.07;;;1.80;;
3712;SDS011;1872;51.406;6.856;2022-11-15T12:02:01;2.53;;;1.60;;
3712;SDS011;1872;51.406;6.856;2022-11-15T12:04:38;1.70;;;1.60;;
3712;SDS011;1872;51.406;6.856;2022-11-15T12:12:41;1.90;;;1.50;;
3712;SDS011;1872;51.406;6.856;2022-11-15T12:18:35;1.90;;;1.80;;
3712;SDS011;1872;51.406;6.856;2022-11-15T12:21:03;1.60;;;1.50;;
3712;SDS011;1872;51.406;6.856;2022-11-15T12:23:52;1.67;;;1.60;;
3712;SDS011;1872;51.406;6.856;2022-11-15T12:26:25;1.67;;;1.33;;
3712;SDS011;1872;51.406;6.856;2022-11-15T12:29:00;1.70;;;1.53;;
3712;SDS011;1872;51.406;6.856;2022-11-15T12:34:01;2.43;;;1.80;;
3712;SDS011;1872;51.406;6.856;2022-11-15T12:39:08;1.47;;;1.37;;
3712;SDS011;1872;51.406;6.856;2022-11-15T12:41:37;2.00;;;1.63;;
3712;SDS011;1872;51.406;6.856;2022-11-15T12:44:05;2.30;;;1.57;;
3712;SDS011;1872;51.406;6.856;2022-11-15T13:17:54;3.27;;;1.30;;
3712;SDS011;1872;51.406;6.856;2022-11-15T13:25:46;3.30;;;1.80;;
3712;SDS011;1872;51.406;6.856;2022-11-15T13:28:32;1.70;;;1.60;;
3712;SDS011;1872;51.406;6.856;2022-11-15T13:31:03;1.70;;;1.60;;
3712;SDS011;1872;51.406;6.856;2022-11-15T13:33:38;1.80;;;1.70;;
3712;SDS011;1872;51.406;6.856;2022-11-15T13:36:09;1.63;;;1.43;;
3712;SDS011;1872;51.406;6.856;2022-11-15T13:38:38;1.63;;;1.53;;
3712;SDS011;1872;51.406;6.856;2022-11-15T13:41:18;2.83;;;1.67;;
3712;SDS011;1872;51.406;6.856;2022-11-15T13:43:46;1.90;;;1.80;;
3712;SDS011;1872;51.406;6.856;2022-11-15T13:46:27;5.23;;;1.77;;
3712;SDS011;1872;51.406;6.856;2022-11-15T13:48:58;2.00;;;1.77;;
3712;SDS011;1872;51.406;6.856;2022-11-15T13:54:07;2.20;;;2.00;;
3712;SDS011;1872;51.406;6.856;2022-11-15T13:56:35;1.73;;;1.60;;
3712;SDS011;1872;51.406;6.856;2022-11-15T13:59:15;2.00;;;1.60;;
3712;SDS011;1872;51.406;6.856;2022-11-15T14:02:11;2.07;;;1.93;;
3712;SDS011;1872;51.406;6.856;2022-11-15T14:04:49;1.70;;;1.43;;
3712;SDS011;1872;51.406;6.856;2022-11-15T14:07:21;2.40;;;1.67;;
3712;SDS011;1872;51.406;6.856;2022-11-15T14:09:48;1.60;;;1.50;;
3712;SDS011;1872;51.406;6.856;2022-11-15T14:12:31;2.20;;;1.73;;
3712;SDS011;1872;51.406;6.856;2022-11-15T14:14:59;1.77;;;1.63;;
3712;SDS011;1872;51.406;6.856;2022-11-15T14:17:44;2.00;;;1.57;;
3712;SDS011;1872;51.406;6.856;2022-11-15T14:23:18;4.00;;;1.60;;
3712;SDS011;1872;51.406;6.856;2022-11-15T14:25:53;2.13;;;1.80;;
3712;SDS011;1872;51.406;6.856;2022-11-15T14:30:49;3.00;;;2.47;;
3712;SDS011;1872;51.406;6.856;2022-11-15T14:36:02;2.37;;;1.97;;
3712;SDS011;1872;51.406;6.856;2022-11-15T14:38:30;3.07;;;1.90;;
3712;SDS011;1872;51.406;6.856;2022-11-15T14:40:56;3.43;;;2.47;;
3712;SDS011;1872;51.406;6.856;2022-11-15T14:43:22;2.93;;;2.17;;
3712;SDS011;1872;51.406;6.856;2022-11-15T14:45:47;3.70;;;2.50;;
3712;SDS011;1872;51.406;6.856;2022-11-15T14:48:13;2.40;;;1.93;;
3712;SDS011;1872;51.406;6.856;2022-11-15T14:50:39;2.50;;;2.30;;
3712;SDS011;1872;51.406;6.856;2022-11-15T14:53:06;2.80;;;2.60;;
3712;SDS011;1872;51.406;6.856;2022-11-15T14:55:33;4.93;;;2.27;;
3712;SDS011;1872;51.406;6.856;2022-11-15T14:58:04;4.07;;;2.80;;
3712;SDS011;1872;51.406;6.856;2022-11-15T15:00:33;2.40;;;2.20;;
3712;SDS011;1872;51.406;6.856;2022-11-15T15:02:59;3.17;;;2.43;;
3712;SDS011;1872;51.406;6.856;2022-11-15T15:05:29;5.00;;;2.40;;
3712;SDS011;1872;51.406;6.856;2022-11-15T15:08:00;4.63;;;2.63;;
3712;SDS011;1872;51.406;6.856;2022-11-15T15:10:40;3.40;;;2.70;;
3712;SDS011;1872;51.406;6.856;2022-11-15T15:13:14;4.50;;;2.87;;
3712;SDS011;1872;51.406;6.856;2022-11-15T15:15:45;5.63;;;3.00;;
3712;SDS011;1872;51.406;6.856;2022-11-15T15:18:14;4.50;;;2.70;;
3712;SDS011;1872;51.406;6.856;2022-11-15T15:20:40;2.77;;;2.57;;
3712;SDS011;1872;51.406;6.856;2022-11-15T15:23:17;3.90;;;3.17;;
3712;SDS011;1872;51.406;6.856;2022-11-15T15:25:44;4.40;;;3.50;;
3712;SDS011;1872;51.406;6.856;2022-11-15T15:28:11;3.30;;;2.90;;
3712;SDS011;1872;51.406;6.856;2022-11-15T15:30:37;3.60;;;3.30;;
3712;SDS011;1872;51.406;6.856;2022-11-15T15:33:06;4.47;;;3.57;;
3712;SDS011;1872;51.406;6.856;2022-11-15T15:35:32;4.17;;;3.30;;
3712;SDS011;1872;51.406;6.856;2022-11-15T15:37:59;3.17;;;2.87;;
3712;SDS011;1872;51.406;6.856;2022-11-15T15:40:25;3.43;;;3.10;;
3712;SDS011;1872;51.406;6.856;2022-11-15T15:42:53;3.60;;;2.80;;
3712;SDS011;1872;51.406;6.856;2022-11-15T15:45:19;3.30;;;3.00;;
3712;SDS011;1872;51.406;6.856;2022-11-15T15:47:45;4.27;;;3.17;;
3712;SDS011;1872;51.406;6.856;2022-11-15T15:50:14;3.37;;;3.07;;
3712;SDS011;1872;51.406;6.856;2022-11-15T15:52:52;3.40;;;3.10;;
3712;SDS011;1872;51.406;6.856;2022-11-15T15:55:22;3.50;;;3.20;;
3712;SDS011;1872;51.406;6.856;2022-11-15T15:57:48;3.30;;;3.00;;
3712;SDS011;1872;51.406;6.856;2022-11-15T16:00:15;5.63;;;3.97;;
3712;SDS011;1872;51.406;6.856;2022-11-15T16:02:41;3.87;;;3.30;;
3712;SDS011;1872;51.406;6.856;2022-11-15T16:05:08;3.57;;;3.10;;
3712;SDS011;1872;51.406;6.856;2022-11-15T16:07:35;4.17;;;3.60;;
3712;SDS011;1872;51.406;6.856;2022-11-15T16:10:02;4.35;;;2.92;;
3712;SDS011;1872;51.406;6.856;2022-11-15T16:12:49;4.00;;;3.37;;
3712;SDS011;1872;51.406;6.856;2022-11-15T16:15:15;3.67;;;3.30;;
3712;SDS011;1872;51.406;6.856;2022-11-15T16:17:44;3.10;;;2.80;;
3712;SDS011;1872;51.406;6.856;2022-11-15T16:22:58;5.63;;;3.23;;
3712;SDS011;1872;51.406;6.856;2022-11-15T16:25:25;3.67;;;3.37;;
3712;SDS011;1872;51.406;6.856;2022-11-15T16:27:51;4.47;;;2.83;;
3712;SDS011;1872;51.406;6.856;2022-11-15T16:30:18;3.97;;;3.27;;
3712;SDS011;1872;51.406;6.856;2022-11-15T16:32:45;3.20;;;3.00;;
3712;SDS011;1872;51.406;6.856;2022-11-15T16:35:12;4.80;;;3.40;;
3712;SDS011;1872;51.406;6.856;2022-11-15T16:37:39;3.30;;;3.00;;
3712;SDS011;1872;51.406;6.856;2022-11-15T16:40:27;3.00;;;2.80;;
3712;SDS011;1872;51.406;6.856;2022-11-15T16:42:53;3.50;;;2.83;;
3712;SDS011;1872;51.406;6.856;2022-11-15T16:45:20;3.83;;;3.37;;
3712;SDS011;1872;51.406;6.856;2022-11-15T16:47:46;3.77;;;3.47;;
3712;SDS011;1872;51.406;6.856;2022-11-15T16:50:28;3.67;;;3.13;;
3712;SDS011;1872;51.406;6.856;2022-11-15T16:52:57;6.10;;;3.30;;
3712;SDS011;1872;51.406;6.856;2022-11-15T16:55:27;3.50;;;3.10;;
3712;SDS011;1872;51.406;6.856;2022-11-15T16:57:54;3.17;;;2.80;;
3712;SDS011;1872;51.406;6.856;2022-11-15T17:00:22;3.87;;;3.30;;
3712;SDS011;1872;51.406;6.856;2022-11-15T17:02:49;3.27;;;2.83;;
3712;SDS011;1872;51.406;6.856;2022-11-15T17:05:16;3.70;;;3.40;;
3712;SDS011;1872;51.406;6.856;2022-11-15T17:07:45;3.70;;;3.40;;
3712;SDS011;1872;51.406;6.856;2022-11-15T17:10:18;3.27;;;2.80;;
3712;SDS011;1872;51.406;6.856;2022-11-15T17:12:45;3.60;;;3.30;;
3712;SDS011;1872;51.406;6.856;2022-11-15T17:15:11;3.53;;;3.00;;
3712;SDS011;1872;51.406;6.856;2022-11-15T17:17:38;3.90;;;3.50;;
3712;SDS011;1872;51.406;6.856;2022-11-15T17:20:05;3.20;;;2.90;;
3712;SDS011;1872;51.406;6.856;2022-11-15T17:22:36;3.23;;;3.03;;
3712;SDS011;1872;51.406;6.856;2022-11-15T17:25:02;3.80;;;3.50;;
3712;SDS011;1872;51.406;6.856;2022-11-15T17:27:28;3.73;;;3.43;;
3712;SDS011;1872;51.406;6.856;2022-11-15T17:29:54;3.80;;;3.40;;
3712;SDS011;1872;51.406;6.856;2022-11-15T17:32:20;3.47;;;3.13;;
3712;SDS011;1872;51.406;6.856;2022-11-15T17:34:46;5.07;;;3.10;;
3712;SDS011;1872;51.406;6.856;2022-11-15T17:37:12;3.57;;;3.27;;
3712;SDS011;1872;51.406;6.856;2022-11-15T17:39:37;3.67;;;3.37;;
3712;SDS011;1872;51.406;6.856;2022-11-15T17:42:03;3.63;;;3.30;;
3712;SDS011;1872;51.406;6.856;2022-11-15T17:44:29;3.83;;;3.40;;
3712;SDS011;1872;51.406;6.856;2022-11-15T17:46:55;4.30;;;3.13;;
3712;SDS011;1872;51.406;6.856;2022-11-15T17:49:21;3.07;;;2.87;;